createdAt,value
2017-07-23T00:01:48.328Z,92.30
2017-07-23T00:04:15.855Z,92.20
2017-07-23T00:06:43.398Z,92.20
2017-07-23T00:09:10.921Z,92.20
2017-07-23T00:11:38.443Z,92.00
2017-07-23T00:14:05.978Z,91.50
2017-07-23T00:16:33.489Z,91.60
2017-07-23T00:19:01.032Z,92.00
2017-07-23T00:21:28.555Z,92.10
2017-07-23T00:23:56.086Z,91.70
2017-07-23T00:26:23.608Z,91.60
2017-07-23T00:28:51.147Z,92.00
2017-07-23T00:31:18.668Z,92.50
2017-07-23T00:33:46.198Z,92.90
2017-07-23T00:36:13.720Z,93.00
2017-07-23T00:38:41.271Z,92.50
2017-07-23T00:41:08.790Z,92.90
2017-07-23T00:43:36.303Z,92.90
2017-07-23T00:46:03.846Z,92.60
2017-07-23T00:48:32.125Z,92.40
2017-07-23T00:51:00.428Z,92.20
2017-07-23T00:53:27.945Z,92.20
2017-07-23T00:55:55.483Z,92.00
2017-07-23T00:58:22.997Z,92.00
2017-07-23T01:00:50.535Z,92.50
2017-07-23T01:03:18.814Z,93.20
2017-07-23T01:05:47.119Z,92.70
2017-07-23T01:08:14.633Z,92.70
2017-07-23T01:10:42.158Z,92.70
2017-07-23T01:13:09.691Z,92.60
2017-07-23T01:15:37.206Z,92.40
2017-07-23T01:18:04.746Z,92.40
2017-07-23T01:20:32.270Z,92.40
2017-07-23T01:22:59.812Z,92.40
2017-07-23T01:25:27.329Z,92.60
2017-07-23T01:27:54.866Z,93.20
2017-07-23T01:30:22.386Z,92.60
2017-07-23T01:32:50.693Z,92.60
2017-07-23T01:35:18.207Z,92.60
2017-07-23T01:37:45.718Z,93.10
2017-07-23T01:40:13.254Z,93.30
2017-07-23T01:42:41.544Z,93.60
2017-07-23T01:45:09.082Z,93.60
2017-07-23T01:47:37.370Z,93.40
2017-07-23T01:50:04.901Z,93.40
2017-07-23T01:52:32.421Z,93.20
2017-07-23T01:54:59.957Z,92.80
2017-07-23T01:57:27.473Z,92.60
2017-07-23T01:59:55.007Z,92.80
2017-07-23T02:02:22.536Z,92.60
2017-07-23T02:04:50.078Z,92.50
2017-07-23T02:07:18.359Z,92.20
2017-07-23T02:09:46.637Z,92.10
2017-07-23T02:12:14.938Z,92.10
2017-07-23T02:14:42.454Z,92.10
2017-07-23T02:17:09.986Z,92.10
2017-07-23T02:19:37.499Z,92.10
2017-07-23T02:22:05.807Z,92.20
2017-07-23T02:24:33.326Z,92.10
2017-07-23T02:27:01.637Z,92.50
2017-07-23T02:29:29.154Z,92.40
2017-07-23T02:31:57.463Z,92.00
2017-07-23T02:34:24.991Z,92.00
2017-07-23T02:36:52.510Z,91.90
2017-07-23T02:39:20.826Z,91.70
2017-07-23T02:41:48.347Z,91.70
2017-07-23T02:44:16.642Z,91.50
2017-07-23T02:46:44.158Z,91.40
2017-07-23T02:49:11.698Z,91.50
2017-07-23T02:51:39.205Z,91.50
2017-07-23T02:54:07.510Z,91.00
2017-07-23T02:56:35.027Z,91.00
2017-07-23T02:59:03.334Z,90.60
2017-07-23T03:01:30.855Z,90.50
2017-07-23T03:03:58.392Z,90.30
2017-07-23T03:06:25.909Z,90.00
2017-07-23T03:08:53.424Z,89.90
2017-07-23T03:11:20.957Z,89.80
2017-07-23T03:13:48.479Z,89.70
2017-07-23T03:16:16.014Z,89.30
2017-07-23T03:18:43.535Z,90.00
2017-07-23T03:21:11.838Z,90.00
2017-07-23T03:23:39.367Z,90.10
2017-07-23T03:26:06.909Z,90.00
2017-07-23T03:28:34.426Z,90.20
2017-07-23T03:31:01.971Z,90.10
2017-07-23T03:33:29.490Z,90.20
2017-07-23T03:35:57.034Z,90.20
2017-07-23T03:38:24.546Z,90.40
2017-07-23T03:40:52.075Z,90.30
2017-07-23T03:43:20.374Z,90.30
2017-07-23T03:45:48.660Z,90.40
2017-07-23T03:48:16.967Z,90.40
2017-07-23T03:50:44.483Z,90.40
2017-07-23T03:53:12.029Z,90.50
2017-07-23T03:55:39.545Z,90.30
2017-07-23T03:58:07.077Z,89.90
2017-07-23T04:00:34.589Z,89.20
2017-07-23T04:03:02.126Z,88.70
2017-07-23T04:05:30.410Z,88.10
2017-07-23T04:07:57.949Z,88.00
2017-07-23T04:10:25.465Z,88.20
2017-07-23T04:12:52.986Z,88.20
2017-07-23T04:15:20.518Z,88.00
2017-07-23T04:17:48.033Z,87.90
2017-07-23T04:20:15.573Z,87.40
2017-07-23T04:22:43.089Z,87.60
2017-07-23T04:25:10.634Z,87.10
2017-07-23T04:27:38.150Z,86.40
2017-07-23T04:30:05.688Z,86.10
2017-07-23T04:32:33.217Z,86.00
2017-07-23T04:35:00.760Z,85.60
2017-07-23T04:37:28.273Z,85.60
2017-07-23T04:39:55.790Z,85.60
2017-07-23T04:42:23.325Z,85.20
2017-07-23T04:44:50.838Z,84.90
2017-07-23T04:47:18.370Z,85.10
2017-07-23T04:49:45.891Z,84.50
2017-07-23T04:52:13.431Z,84.60
2017-07-23T04:54:40.946Z,84.20
2017-07-23T04:57:08.482Z,83.90
2017-07-23T04:59:36.769Z,84.60
2017-07-23T05:02:04.318Z,84.60
2017-07-23T05:04:32.602Z,84.40
2017-07-23T05:07:00.122Z,84.40
2017-07-23T05:09:27.657Z,84.60
2017-07-23T05:11:55.174Z,84.80
2017-07-23T05:14:23.477Z,85.50
2017-07-23T05:16:51.001Z,85.50
2017-07-23T05:19:19.299Z,86.00
2017-07-23T05:21:46.810Z,86.00
2017-07-23T05:24:14.347Z,86.90
2017-07-23T05:26:41.864Z,87.20
2017-07-23T05:29:10.145Z,87.40
2017-07-23T05:31:37.686Z,87.40
2017-07-23T05:34:05.204Z,87.30
2017-07-23T05:36:32.738Z,87.40
2017-07-23T05:39:00.254Z,87.30
2017-07-23T05:41:27.790Z,86.60
2017-07-23T05:43:55.313Z,86.60
2017-07-23T05:46:22.851Z,86.10
2017-07-23T05:48:50.370Z,84.70
2017-07-23T05:51:17.911Z,84.90
2017-07-23T05:53:45.427Z,84.20
2017-07-23T05:56:13.717Z,83.30
2017-07-23T05:58:42.020Z,82.80
2017-07-23T06:01:09.538Z,82.80
2017-07-23T06:03:37.081Z,77.70
2017-07-23T06:06:04.610Z,69.40
2017-07-23T06:08:32.149Z,63.50
2017-07-23T06:10:59.670Z,59.00
2017-07-23T06:13:27.974Z,55.90
2017-07-23T06:15:55.489Z,55.80
2017-07-23T06:18:23.026Z,58.60
2017-07-23T06:20:50.537Z,58.30
2017-07-23T06:23:18.818Z,55.00
2017-07-23T06:25:46.358Z,55.00
2017-07-23T06:28:13.882Z,58.00
2017-07-23T06:30:41.422Z,57.70
2017-07-23T06:33:09.722Z,57.30
2017-07-23T06:35:37.259Z,57.20
2017-07-23T06:38:04.784Z,58.50
2017-07-23T06:40:32.322Z,56.20
2017-07-23T06:42:59.839Z,57.20
2017-07-23T06:45:27.365Z,59.10
2017-07-23T06:47:54.887Z,61.10
2017-07-23T06:50:22.425Z,58.60
2017-07-23T06:52:49.942Z,58.40
2017-07-23T06:55:17.464Z,55.10
2017-07-23T06:57:45.767Z,56.30
2017-07-23T07:00:13.285Z,56.20
2017-07-23T07:02:40.827Z,55.50
2017-07-23T07:05:09.106Z,53.10
2017-07-23T07:07:38.236Z,51.90
2017-07-23T07:10:05.763Z,51.80
2017-07-23T07:12:33.309Z,53.80
2017-07-23T07:15:00.828Z,54.20
2017-07-23T07:17:29.125Z,55.00
2017-07-23T07:19:56.643Z,55.00
2017-07-23T07:22:24.199Z,55.80
2017-07-23T07:24:51.723Z,56.50
2017-07-23T07:27:19.247Z,55.40
2017-07-23T07:29:46.787Z,55.50
2017-07-23T07:32:15.067Z,58.70
2017-07-23T07:34:42.598Z,58.70
2017-07-23T07:37:10.875Z,58.10
2017-07-23T07:39:39.176Z,59.20
2017-07-23T07:42:06.694Z,59.10
2017-07-23T07:44:34.226Z,59.30
2017-07-23T07:47:01.743Z,60.30
2017-07-23T07:49:29.284Z,60.90
2017-07-23T07:51:56.807Z,61.00
2017-07-23T07:54:24.345Z,60.90
2017-07-23T07:56:51.862Z,60.10
2017-07-23T07:59:19.377Z,57.20
2017-07-23T08:01:46.910Z,56.30
2017-07-23T08:04:14.429Z,55.00
2017-07-23T08:06:41.970Z,53.90
2017-07-23T08:09:10.254Z,53.60
2017-07-23T08:11:38.555Z,51.20
2017-07-23T08:14:06.080Z,51.10
2017-07-23T08:16:34.386Z,52.40
2017-07-23T08:19:01.903Z,52.60
2017-07-23T08:21:29.438Z,53.50
2017-07-23T08:23:56.959Z,52.90
2017-07-23T08:26:25.271Z,53.10
2017-07-23T08:28:52.799Z,53.10
2017-07-23T08:31:20.313Z,51.70
2017-07-23T08:33:47.849Z,53.00
2017-07-23T08:36:16.135Z,50.00
2017-07-23T08:38:43.674Z,49.90
2017-07-23T08:41:11.186Z,50.00
2017-07-23T08:43:38.722Z,47.30
2017-07-23T08:46:06.230Z,48.10
2017-07-23T08:48:33.771Z,46.20
2017-07-23T08:51:01.298Z,45.10
2017-07-23T08:53:28.815Z,42.80
2017-07-23T08:55:56.348Z,44.20
2017-07-23T08:58:23.868Z,43.50
2017-07-23T09:00:52.170Z,43.00
2017-07-23T09:03:19.689Z,42.90
2017-07-23T09:05:47.225Z,42.80
2017-07-23T09:08:14.743Z,44.90
2017-07-23T09:10:42.278Z,45.50
2017-07-23T09:13:09.799Z,44.80
2017-07-23T09:15:37.319Z,44.60
2017-07-23T09:18:04.858Z,45.10
2017-07-23T09:20:32.380Z,44.80
2017-07-23T09:23:00.687Z,44.80
2017-07-23T09:25:28.207Z,44.80
2017-07-23T09:27:55.741Z,45.50
2017-07-23T09:30:23.258Z,44.50
2017-07-23T09:32:50.797Z,44.80
2017-07-23T09:35:18.314Z,46.70
2017-07-23T09:37:45.837Z,45.00
2017-07-23T09:40:13.370Z,45.00
2017-07-23T09:42:40.883Z,43.70
2017-07-23T09:45:08.414Z,43.70
2017-07-23T09:47:35.930Z,45.50
2017-07-23T09:50:03.474Z,43.80
2017-07-23T09:52:30.990Z,43.60
2017-07-23T09:54:58.505Z,44.20
2017-07-23T09:57:26.046Z,46.10
2017-07-23T09:59:54.326Z,44.80
2017-07-23T10:02:21.861Z,44.70
2017-07-23T10:04:49.379Z,43.90
2017-07-23T10:07:16.914Z,43.40
2017-07-23T10:09:44.433Z,43.60
2017-07-23T10:12:11.970Z,45.30
2017-07-23T10:14:40.261Z,43.50
2017-07-23T10:17:07.778Z,43.50
2017-07-23T10:19:35.310Z,43.10
2017-07-23T10:22:02.834Z,45.50
2017-07-23T10:24:31.135Z,43.60
2017-07-23T10:26:58.656Z,43.60
2017-07-23T10:29:26.197Z,45.40
2017-07-23T10:31:53.722Z,45.70
2017-07-23T10:34:21.258Z,44.70
2017-07-23T10:36:48.778Z,44.10
2017-07-23T10:39:16.326Z,41.50
2017-07-23T10:41:43.842Z,42.90
2017-07-23T10:44:11.364Z,41.60
2017-07-23T10:46:38.897Z,40.30
2017-07-23T10:49:06.413Z,42.20
2017-07-23T10:51:33.952Z,41.80
2017-07-23T10:54:01.474Z,42.50
2017-07-23T10:56:29.010Z,43.30
2017-07-23T10:58:56.538Z,43.90
2017-07-23T11:01:24.072Z,43.90
2017-07-23T11:03:51.596Z,45.20
2017-07-23T11:06:19.148Z,45.70
2017-07-23T11:08:46.667Z,44.20
2017-07-23T11:11:14.950Z,44.60
2017-07-23T11:13:42.490Z,44.40
2017-07-23T11:16:10.774Z,43.60
2017-07-23T11:18:38.314Z,43.70
2017-07-23T11:21:05.838Z,43.90
2017-07-23T11:23:33.378Z,42.40
2017-07-23T11:26:00.894Z,44.40
2017-07-23T11:28:28.435Z,46.70
2017-07-23T11:30:56.714Z,47.10
2017-07-23T11:33:24.251Z,47.00
2017-07-23T11:35:51.781Z,46.20
2017-07-23T11:38:19.319Z,45.90
2017-07-23T11:40:46.833Z,46.60
2017-07-23T11:43:14.365Z,44.70
2017-07-23T11:45:41.886Z,45.20
2017-07-23T11:48:09.422Z,44.80
2017-07-23T11:50:36.938Z,45.60
2017-07-23T11:53:04.533Z,45.50
2017-07-23T11:55:32.082Z,46.00
2017-07-23T11:57:59.599Z,45.50
2017-07-23T12:00:27.138Z,46.80
2017-07-23T12:02:55.421Z,44.90
2017-07-23T12:05:22.954Z,44.90
2017-07-23T12:07:51.246Z,44.40
2017-07-23T12:10:18.787Z,44.10
2017-07-23T12:12:47.069Z,45.10
2017-07-23T12:15:14.606Z,45.10
2017-07-23T12:17:42.124Z,41.90
2017-07-23T12:20:09.674Z,42.10
2017-07-23T12:22:37.961Z,42.90
2017-07-23T12:25:05.469Z,42.80
2017-07-23T12:27:33.001Z,41.50
2017-07-23T12:30:00.528Z,41.20
2017-07-23T12:32:28.833Z,40.90
2017-07-23T12:34:56.355Z,40.80
2017-07-23T12:37:24.657Z,40.60
2017-07-23T12:39:52.170Z,41.10
2017-07-23T12:42:20.165Z,41.60
2017-07-23T12:44:48.454Z,41.70
2017-07-23T12:47:16.758Z,42.60
2017-07-23T12:49:44.270Z,42.50
2017-07-23T12:52:11.807Z,41.20
2017-07-23T12:54:39.318Z,42.20
2017-07-23T12:57:07.642Z,41.50
2017-07-23T12:59:35.168Z,41.40
2017-07-23T13:02:02.686Z,44.10
2017-07-23T13:04:30.222Z,43.70
2017-07-23T13:06:57.738Z,44.80
2017-07-23T13:09:25.269Z,44.20
2017-07-23T13:11:52.787Z,44.60
2017-07-23T13:14:20.328Z,43.90
2017-07-23T13:16:47.874Z,43.20
2017-07-23T13:19:15.418Z,42.80
2017-07-23T13:21:42.929Z,42.60
2017-07-23T13:24:10.468Z,43.80
2017-07-23T13:26:37.986Z,43.90
2017-07-23T13:29:06.289Z,44.60
2017-07-23T13:31:33.802Z,44.60
2017-07-23T13:34:01.338Z,45.10
2017-07-23T13:36:28.854Z,44.00
2017-07-23T13:38:56.373Z,45.00
2017-07-23T13:41:23.918Z,45.40
2017-07-23T13:43:51.437Z,45.50
2017-07-23T13:46:18.974Z,44.90
2017-07-23T13:48:46.490Z,45.30
2017-07-23T13:51:14.030Z,43.80
2017-07-23T13:53:41.550Z,44.30
2017-07-23T13:56:09.091Z,44.20
2017-07-23T13:58:37.375Z,43.50
2017-07-23T14:01:04.915Z,43.50
2017-07-23T14:03:32.430Z,44.50
2017-07-23T14:05:59.977Z,43.60
2017-07-23T14:08:27.497Z,43.00
2017-07-23T14:10:55.029Z,43.20
2017-07-23T14:13:22.563Z,41.50
2017-07-23T14:15:50.094Z,40.90
2017-07-23T14:18:17.646Z,40.40
2017-07-23T14:20:45.153Z,40.00
2017-07-23T14:23:12.688Z,41.60
2017-07-23T14:25:40.206Z,42.30
2017-07-23T14:28:07.747Z,42.90
2017-07-23T14:30:35.265Z,42.70
2017-07-23T14:33:02.808Z,41.40
2017-07-23T14:35:30.322Z,43.20
2017-07-23T14:37:57.843Z,42.30
2017-07-23T14:40:26.153Z,42.70
2017-07-23T14:42:53.666Z,42.70
2017-07-23T14:45:21.966Z,43.80
2017-07-23T14:47:49.483Z,43.80
2017-07-23T14:50:17.782Z,43.70
2017-07-23T14:52:45.307Z,43.60
2017-07-23T14:55:12.847Z,43.60
2017-07-23T14:57:40.361Z,43.00
2017-07-23T15:00:07.898Z,43.10
2017-07-23T15:02:35.409Z,43.50
2017-07-23T15:05:02.936Z,43.00
2017-07-23T15:07:30.473Z,43.00
2017-07-23T15:09:57.991Z,42.40
2017-07-23T15:12:25.544Z,43.70
2017-07-23T15:14:53.066Z,42.40
2017-07-23T15:17:20.607Z,42.20
2017-07-23T15:19:48.122Z,43.10
2017-07-23T15:22:15.657Z,43.30
2017-07-23T15:24:43.174Z,42.00
2017-07-23T15:27:10.710Z,42.50
2017-07-23T15:29:38.227Z,42.60
2017-07-23T15:32:05.753Z,43.90
2017-07-23T15:34:33.285Z,44.60
2017-07-23T15:37:00.810Z,44.20
2017-07-23T15:39:29.112Z,44.50
2017-07-23T15:41:56.633Z,44.60
2017-07-23T15:44:24.174Z,44.30
2017-07-23T15:46:51.693Z,44.20
2017-07-23T15:49:19.228Z,44.50
2017-07-23T15:51:46.746Z,45.20
2017-07-23T15:54:14.284Z,45.30
2017-07-23T15:56:41.804Z,45.40
2017-07-23T15:59:10.114Z,44.10
2017-07-23T16:01:37.625Z,44.10
2017-07-23T16:04:05.147Z,44.50
2017-07-23T16:06:32.691Z,44.90
2017-07-23T16:09:00.208Z,44.00
2017-07-23T16:11:27.747Z,44.20
2017-07-23T16:13:56.026Z,45.20
2017-07-23T16:16:23.563Z,45.20
2017-07-23T16:18:51.079Z,45.80
2017-07-23T16:21:18.649Z,44.80
2017-07-23T16:23:46.165Z,45.20
2017-07-23T16:26:13.698Z,44.80
2017-07-23T16:28:41.215Z,44.40
2017-07-23T16:31:08.751Z,43.60
2017-07-23T16:33:36.275Z,44.20
2017-07-23T16:36:03.816Z,44.20
2017-07-23T16:38:31.343Z,44.90
2017-07-23T16:40:58.863Z,45.30
2017-07-23T16:43:27.165Z,46.10
2017-07-23T16:45:54.686Z,46.10
2017-07-23T16:48:22.988Z,46.40
2017-07-23T16:50:50.505Z,46.40
2017-07-23T16:53:18.039Z,46.40
2017-07-23T16:55:46.324Z,46.10
2017-07-23T16:58:13.869Z,46.10
2017-07-23T17:00:41.386Z,45.50
2017-07-23T17:03:09.686Z,46.10
2017-07-23T17:05:37.961Z,45.80
2017-07-23T17:08:05.497Z,45.70
2017-07-23T17:10:33.782Z,46.50
2017-07-23T17:13:01.300Z,46.50
2017-07-23T17:15:28.845Z,47.00
2017-07-23T17:17:56.373Z,47.00
2017-07-23T17:20:23.911Z,46.50
2017-07-23T17:22:51.420Z,46.90
2017-07-23T17:25:18.968Z,46.50
2017-07-23T17:27:47.247Z,47.80
2017-07-23T17:30:14.783Z,47.70
2017-07-23T17:32:42.307Z,46.20
2017-07-23T17:35:09.845Z,46.50
2017-07-23T17:37:37.362Z,47.10
2017-07-23T17:40:04.887Z,47.10
2017-07-23T17:42:32.422Z,47.80
2017-07-23T17:44:59.947Z,48.50
2017-07-23T17:47:27.487Z,48.70
2017-07-23T17:49:55.772Z,49.30
2017-07-23T17:52:23.310Z,49.30
2017-07-23T17:54:50.826Z,50.00
2017-07-23T17:57:18.366Z,50.00
2017-07-23T17:59:46.650Z,50.60
2017-07-23T18:02:14.192Z,50.60
2017-07-23T18:04:42.474Z,51.10
2017-07-23T18:07:10.015Z,51.10
2017-07-23T18:09:37.532Z,51.50
2017-07-23T18:12:05.849Z,51.60
2017-07-23T18:14:33.372Z,51.50
2017-07-23T18:17:00.885Z,52.30
2017-07-23T18:19:28.425Z,52.30
2017-07-23T18:21:55.943Z,54.20
2017-07-23T18:24:23.481Z,54.80
2017-07-23T18:26:50.998Z,54.20
2017-07-23T18:29:19.304Z,54.20
2017-07-23T18:31:46.830Z,54.20
2017-07-23T18:34:14.369Z,55.20
2017-07-23T18:36:41.881Z,56.00
2017-07-23T18:39:10.181Z,59.50
2017-07-23T18:41:38.463Z,59.90
2017-07-23T18:44:06.760Z,60.90
2017-07-23T18:46:34.279Z,60.90
2017-07-23T18:49:02.593Z,61.70
2017-07-23T18:51:30.105Z,61.60
2017-07-23T18:53:58.386Z,61.00
2017-07-23T18:56:26.689Z,62.20
2017-07-23T18:58:54.206Z,62.10
2017-07-23T19:01:21.752Z,63.10
2017-07-23T19:03:49.270Z,63.10
2017-07-23T19:06:17.570Z,64.80
2017-07-23T19:08:45.090Z,64.80
2017-07-23T19:11:12.652Z,65.30
2017-07-23T19:13:40.166Z,65.80
2017-07-23T19:16:07.706Z,65.30
2017-07-23T19:18:35.262Z,65.60
2017-07-23T19:21:02.795Z,65.00
2017-07-23T19:23:30.319Z,65.30
2017-07-23T19:25:57.839Z,64.70
2017-07-23T19:28:25.378Z,64.50
2017-07-23T19:30:53.020Z,65.30
2017-07-23T19:33:21.318Z,66.90
2017-07-23T19:35:48.834Z,66.90
2017-07-23T19:38:16.368Z,67.30
2017-07-23T19:40:44.652Z,68.60
2017-07-23T19:43:12.191Z,68.60
2017-07-23T19:45:39.726Z,68.60
2017-07-23T19:48:07.269Z,69.30
2017-07-23T19:50:35.548Z,70.70
2017-07-23T19:53:03.068Z,70.70
2017-07-23T19:55:30.603Z,71.00
2017-07-23T19:57:58.914Z,71.30
2017-07-23T20:00:26.445Z,71.30
2017-07-23T20:02:53.966Z,71.50
2017-07-23T20:05:21.513Z,72.90
2017-07-23T20:07:49.037Z,71.70
2017-07-23T20:10:16.571Z,71.80
2017-07-23T20:12:44.862Z,72.00
2017-07-23T20:15:12.439Z,72.00
2017-07-23T20:17:40.737Z,72.30
2017-07-23T20:20:08.426Z,72.50
2017-07-23T20:22:35.952Z,73.20
2017-07-23T20:25:03.478Z,74.10
2017-07-23T20:27:31.816Z,75.60
2017-07-23T20:29:59.366Z,75.60
2017-07-23T20:32:26.944Z,76.10
2017-07-23T20:34:54.489Z,76.90
2017-07-23T20:37:22.070Z,77.70
2017-07-23T20:39:49.611Z,78.30
2017-07-23T20:42:17.182Z,78.10
2017-07-23T20:44:44.710Z,77.50
2017-07-23T20:47:12.309Z,76.60
2017-07-23T20:49:39.851Z,76.20
2017-07-23T20:52:07.409Z,76.70
2017-07-23T20:54:34.985Z,77.30
2017-07-23T20:57:02.505Z,78.40
2017-07-23T20:59:30.102Z,78.10
2017-07-23T21:01:57.638Z,77.60
2017-07-23T21:04:25.194Z,76.90
2017-07-23T21:06:52.718Z,77.00
2017-07-23T21:09:21.054Z,77.10
2017-07-23T21:11:48.573Z,77.10
2017-07-23T21:14:16.115Z,77.90
2017-07-23T21:16:44.419Z,77.10
2017-07-23T21:19:11.960Z,77.10
2017-07-23T21:21:39.541Z,77.10
2017-07-23T21:24:07.092Z,77.80
2017-07-23T21:26:34.659Z,78.20
2017-07-23T21:29:02.193Z,79.00
2017-07-23T21:31:30.518Z,79.60
2017-07-23T21:33:58.059Z,79.50
2017-07-23T21:36:25.618Z,80.00
2017-07-23T21:38:53.130Z,80.50
2017-07-23T21:41:20.698Z,81.10
2017-07-23T21:43:48.212Z,82.30
2017-07-23T21:46:15.841Z,82.80
2017-07-23T21:48:44.118Z,81.80
2017-07-23T21:51:11.653Z,81.80
2017-07-23T21:53:39.203Z,81.30
2017-07-23T21:56:06.719Z,80.80
2017-07-23T21:58:34.262Z,81.50
2017-07-23T22:01:01.778Z,80.00
2017-07-23T22:03:29.363Z,80.40
2017-07-23T22:05:57.651Z,80.90
2017-07-23T22:08:25.187Z,80.80
2017-07-23T22:10:52.706Z,80.70
2017-07-23T22:13:21.019Z,80.60
2017-07-23T22:15:48.534Z,80.60
2017-07-23T22:18:16.814Z,82.80
2017-07-23T22:20:44.347Z,81.90
2017-07-23T22:23:12.628Z,82.80
2017-07-23T22:25:40.933Z,82.90
2017-07-23T22:28:08.458Z,82.90
2017-07-23T22:30:35.998Z,83.60
2017-07-23T22:33:03.519Z,83.30
2017-07-23T22:35:31.067Z,82.70
2017-07-23T22:37:58.588Z,81.40
2017-07-23T22:40:26.122Z,81.10
2017-07-23T22:42:53.639Z,81.40
2017-07-23T22:45:21.181Z,81.70
2017-07-23T22:47:48.695Z,81.90
2017-07-23T22:50:16.255Z,81.30
2017-07-23T22:52:44.542Z,80.40
2017-07-23T22:55:12.822Z,80.30
2017-07-23T22:57:40.358Z,80.30
2017-07-23T23:00:07.869Z,81.30
2017-07-23T23:02:35.410Z,81.70
2017-07-23T23:05:02.930Z,82.20
2017-07-23T23:07:30.477Z,81.50
2017-07-23T23:09:58.757Z,81.50
2017-07-23T23:12:26.298Z,81.40
2017-07-23T23:14:53.824Z,81.90
2017-07-23T23:17:21.367Z,82.60
2017-07-23T23:19:48.890Z,82.60
2017-07-23T23:22:16.436Z,83.10
2017-07-23T23:24:43.951Z,84.00
2017-07-23T23:27:12.267Z,84.30
2017-07-23T23:29:39.791Z,84.20
2017-07-23T23:32:07.319Z,84.30
2017-07-23T23:34:35.637Z,85.90
2017-07-23T23:37:03.924Z,86.10
2017-07-23T23:39:31.469Z,85.90
2017-07-23T23:41:58.996Z,85.80
2017-07-23T23:44:26.529Z,85.50
2017-07-23T23:46:54.054Z,85.10
2017-07-23T23:49:21.597Z,85.70
2017-07-23T23:51:49.879Z,84.10
2017-07-23T23:54:18.186Z,83.70
2017-07-23T23:56:45.708Z,83.70
2017-07-23T23:59:14.754Z,84.70
